Time;durP1;ratioP1;P1;durP2;ratioP2;P2;SDS_P1;SDS_P2;PMS_P1;PMS_P2;Temp;Humidity;BMP_temperature;BMP_pressure;BME280_temperature;BME280_humidity;BME280_pressure;Samples;Min_cycle;Max_cycle;Signal;HPM_P1;HPM_P2
2022/08/25 00:00:26;;;;;;;5.03;3.50;;;;;;;;;;7332847;19;153709;-15
2022/08/25 00:02:57;;;;;;;5.00;2.70;;;;;;;;;;7332192;19;161805;-15
2022/08/25 00:05:32;;;;;;;4.80;2.45;;;;;;;;;;7331639;19;162343;-15
2022/08/25 00:08:05;;;;;;;4.70;2.90;;;;;;;;;;7332511;19;154051;-14
2022/08/25 00:10:41;;;;;;;4.57;3.40;;;;;;;;;;7336354;19;153559;-15
2022/08/25 00:13:12;;;;;;;5.28;3.13;;;;;;;;;;7332123;19;161861;-15
2022/08/25 00:15:44;;;;;;;5.50;2.95;;;;;;;;;;7332036;19;162371;-15
2022/08/25 00:18:15;;;;;;;3.97;3.20;;;;;;;;;;7332271;19;154059;-15
2022/08/25 00:20:49;;;;;;;6.63;3.10;;;;;;;;;;7332059;19;153711;-15
2022/08/25 00:23:21;;;;;;;4.68;3.08;;;;;;;;;;7330474;19;161894;-15
2022/08/25 00:25:55;;;;;;;3.47;2.73;;;;;;;;;;7330941;19;162789;-15
2022/08/25 00:28:28;;;;;;;5.00;3.13;;;;;;;;;;7332025;19;153991;-15
2022/08/25 00:31:00;;;;;;;;;;;;;;;;;;7332496;19;153546;-15
2022/08/25 00:33:31;;;;;;;7.05;3.08;;;;;;;;;;7331726;19;162112;-15
2022/08/25 00:36:03;;;;;;;3.28;2.70;;;;;;;;;;7331435;19;162628;-15
2022/08/25 00:38:35;;;;;;;5.05;3.00;;;;;;;;;;7331805;19;154216;-15
2022/08/25 00:41:10;;;;;;;5.07;3.22;;;;;;;;;;7331625;19;153786;-15
2022/08/25 00:43:48;;;;;;;6.47;2.95;;;;;;;;;;7331304;19;162020;-16
2022/08/25 00:46:22;;;;;;;4.45;3.15;;;;;;;;;;7330279;19;162766;-15
2022/08/25 00:48:58;;;;;;;5.32;3.03;;;;;;;;;;7331443;19;154074;-15
2022/08/25 00:51:35;;;;;;;3.63;3.10;;;;;;;;;;7331391;19;153576;-15
2022/08/25 00:54:11;;;;;;;4.07;3.63;;;;;;;;;;7328460;19;162168;-16
2022/08/25 00:56:45;;;;;;;5.55;3.30;;;;;;;;;;7330993;19;162406;-16
2022/08/25 00:59:17;;;;;;;3.92;2.72;;;;;;;;;;7329094;19;154116;-15
2022/08/25 01:01:49;;;;;;;4.83;3.30;;;;;;;;;;7331094;19;153611;-15
2022/08/25 01:04:21;;;;;;;4.55;3.22;;;;;;;;;;7330773;19;161768;-17
2022/08/25 01:06:54;;;;;;;3.58;2.65;;;;;;;;;;7329344;19;162532;-17
2022/08/25 01:09:26;;;;;;;4.88;3.17;;;;;;;;;;7332638;19;154217;-16
2022/08/25 01:12:00;;;;;;;4.72;3.85;;;;;;;;;;7330673;19;153545;-16
2022/08/25 01:14:33;;;;;;;11.00;3.50;;;;;;;;;;7330441;19;162413;-16
2022/08/25 01:17:04;;;;;;;;;;;;;;;;;;7330880;19;162394;-15
2022/08/25 01:19:35;;;;;;;4.28;3.20;;;;;;;;;;7330744;19;154164;-16
2022/08/25 01:22:09;;;;;;;4.78;3.30;;;;;;;;;;7330595;19;153506;-16
2022/08/25 01:24:46;;;;;;;4.28;3.00;;;;;;;;;;7332702;19;161864;-16
2022/08/25 01:27:17;;;;;;;4.55;3.28;;;;;;;;;;7328640;19;162632;-14
2022/08/25 01:29:50;;;;;;;5.50;3.70;;;;;;;;;;7330408;19;154197;-15
2022/08/25 01:32:21;;;;;;;7.15;3.63;;;;;;;;;;7330098;19;153545;-16
2022/08/25 01:34:52;;;;;;;4.88;3.67;;;;;;;;;;7329650;19;162025;-17
2022/08/25 01:37:26;;;;;;;4.25;3.55;;;;;;;;;;7329472;19;162691;-17
2022/08/25 01:40:00;;;;;;;5.70;3.67;;;;;;;;;;7332571;19;154146;-15
2022/08/25 01:42:44;;;;;;;4.50;3.47;;;;;;;;;;7329978;19;153641;-14
2022/08/25 01:45:15;;;;;;;4.82;3.72;;;;;;;;;;7329589;19;161857;-14
2022/08/25 01:47:47;;;;;;;3.80;3.20;;;;;;;;;;7327510;19;163248;-14
2022/08/25 01:50:18;;;;;;;6.30;3.50;;;;;;;;;;7329667;19;154311;-14
2022/08/25 01:52:56;;;;;;;6.60;3.30;;;;;;;;;;7328252;19;153801;-14
2022/08/25 01:55:27;;;;;;;5.32;3.75;;;;;;;;;;7326126;19;162023;-15
2022/08/25 01:58:00;;;;;;;4.60;3.30;;;;;;;;;;7329132;19;162453;-15
2022/08/25 02:00:32;;;;;;;4.47;3.92;;;;;;;;;;7329377;19;154608;-15
2022/08/25 02:03:03;;;;;;;5.68;3.60;;;;;;;;;;7329141;19;153576;-15
2022/08/25 02:05:34;;;;;;;5.95;4.10;;;;;;;;;;7327402;19;162268;-16
2022/08/25 02:08:08;;;;;;;6.63;3.50;;;;;;;;;;7326928;19;162414;-16
2022/08/25 02:10:41;;;;;;;5.07;3.88;;;;;;;;;;7335469;19;154124;-14
2022/08/25 02:13:12;;;;;;;4.72;3.70;;;;;;;;;;7334712;19;153497;-14
2022/08/25 02:15:44;;;;;;;5.85;4.00;;;;;;;;;;7335437;19;161819;-14
2022/08/25 02:18:16;;;;;;;6.25;4.50;;;;;;;;;;7335267;19;162457;-15
2022/08/25 02:20:47;;;;;;;8.95;4.20;;;;;;;;;;7335717;19;154038;-15
2022/08/25 02:23:21;;;;;;;5.15;3.92;;;;;;;;;;7335482;19;153610;-15
2022/08/25 02:25:52;;;;;;;5.53;3.85;;;;;;;;;;7334954;19;161800;-15
2022/08/25 02:28:24;;;;;;;6.00;3.80;;;;;;;;;;7333370;19;162559;-16
2022/08/25 02:30:55;;;;;;;5.78;3.83;;;;;;;;;;7335132;19;153998;-15
2022/08/25 02:33:26;;;;;;;5.03;3.85;;;;;;;;;;7335180;19;153747;-16
2022/08/25 02:36:01;;;;;;;5.05;3.70;;;;;;;;;;7334720;19;162034;-15
2022/08/25 02:38:35;;;;;;;4.60;4.03;;;;;;;;;;7334717;19;162479;-15
2022/08/25 02:41:13;;;;;;;5.38;4.53;;;;;;;;;;7334988;19;154076;-14
2022/08/25 02:43:47;;;;;;;5.57;4.07;;;;;;;;;;7335079;19;153619;-15
2022/08/25 02:46:20;;;;;;;6.25;4.13;;;;;;;;;;7334672;19;162039;-14
2022/08/25 02:48:52;;;;;;;6.72;3.85;;;;;;;;;;7332633;19;162549;-14
2022/08/25 02:51:25;;;;;;;5.35;4.00;;;;;;;;;;7334940;19;154122;-14
2022/08/25 02:54:00;;;;;;;7.70;4.30;;;;;;;;;;7333590;19;153718;-14
2022/08/25 02:56:32;;;;;;;6.82;3.75;;;;;;;;;;7334222;19;161932;-14
2022/08/25 02:59:04;;;;;;;5.90;4.18;;;;;;;;;;7333146;19;162393;-14
2022/08/25 03:01:36;;;;;;;9.13;4.20;;;;;;;;;;7334496;19;154076;-15
2022/08/25 03:04:07;;;;;;;6.95;4.55;;;;;;;;;;7334273;19;153516;-15
2022/08/25 03:06:39;;;;;;;6.25;4.00;;;;;;;;;;7333964;19;161852;-14
2022/08/25 03:09:13;;;;;;;7.13;4.47;;;;;;;;;;7331695;19;163140;-14
2022/08/25 03:11:45;;;;;;;6.60;4.45;;;;;;;;;;7334254;19;153939;-15
2022/08/25 03:14:17;;;;;;;4.68;3.80;;;;;;;;;;7334233;19;153549;-16
2022/08/25 03:16:48;;;;;;;7.43;5.05;;;;;;;;;;7333541;19;162084;-14
2022/08/25 03:19:19;;;;;;;4.55;4.00;;;;;;;;;;7337166;19;162589;-14
2022/08/25 03:21:51;;;;;;;6.78;4.32;;;;;;;;;;7332578;19;154013;-15
2022/08/25 03:24:25;;;;;;;5.50;4.27;;;;;;;;;;7333788;19;153568;-15
2022/08/25 03:26:54;;;;;;;6.53;4.20;;;;;;;;;;7333363;19;161832;-14
2022/08/25 03:29:27;;;;;;;8.02;3.97;;;;;;;;;;7329979;19;162773;-14
2022/08/25 03:32:00;;;;;;;5.03;3.65;;;;;;;;;;7333592;19;154730;-15
2022/08/25 03:34:31;;;;;;;;;;;;;;;;;;7336717;19;153513;-15
2022/08/25 03:37:04;;;;;;;6.60;4.10;;;;;;;;;;7333323;19;162068;-15
2022/08/25 03:39:38;;;;;;;7.28;4.47;;;;;;;;;;7334741;19;162367;-15
2022/08/25 03:42:11;;;;;;;4.97;4.30;;;;;;;;;;7333438;19;154126;-15
2022/08/25 03:44:42;;;;;;;6.05;4.30;;;;;;;;;;7333283;19;153615;-15
2022/08/25 03:47:13;;;;;;;9.23;4.55;;;;;;;;;;7332785;19;162183;-15
2022/08/25 03:49:45;;;;;;;5.13;4.20;;;;;;;;;;7330666;19;162404;-15
2022/08/25 03:52:17;;;;;;;5.80;4.68;;;;;;;;;;7333025;19;154107;-15
2022/08/25 03:54:51;;;;;;;6.10;4.13;;;;;;;;;;7331024;19;153649;-15
2022/08/25 03:57:22;;;;;;;8.00;4.68;;;;;;;;;;7332510;19;162053;-15
2022/08/25 03:59:54;;;;;;;4.53;3.65;;;;;;;;;;7332291;19;162382;-15
2022/08/25 04:02:25;;;;;;;5.63;4.43;;;;;;;;;;7332801;19;153975;-15
2022/08/25 04:04:56;;;;;;;6.40;4.47;;;;;;;;;;7332810;19;153496;-15
2022/08/25 04:07:27;;;;;;;7.07;4.28;;;;;;;;;;7332254;19;162002;-14
2022/08/25 04:10:02;;;;;;;6.35;4.28;;;;;;;;;;7332473;19;162612;-14
2022/08/25 04:12:33;;;;;;;4.38;3.80;;;;;;;;;;7332581;19;154295;-14
2022/08/25 04:15:04;;;;;;;4.65;4.20;;;;;;;;;;7332297;19;153650;-15
2022/08/25 04:17:38;;;;;;;7.82;4.57;;;;;;;;;;7332034;19;162083;-14
2022/08/25 04:20:12;;;;;;;4.38;3.97;;;;;;;;;;7332064;19;162376;-14
2022/08/25 04:22:44;;;;;;;5.68;4.13;;;;;;;;;;7332399;19;154266;-14
2022/08/25 04:25:18;;;;;;;5.20;3.78;;;;;;;;;;7332128;19;153722;-14
2022/08/25 04:27:49;;;;;;;5.50;4.32;;;;;;;;;;7331802;19;161973;-14
2022/08/25 04:30:20;;;;;;;6.88;4.30;;;;;;;;;;7329179;19;162543;-14
2022/08/25 04:32:52;;;;;;;6.68;4.18;;;;;;;;;;7332022;19;154215;-13
2022/08/25 04:35:23;;;;;;;4.40;4.00;;;;;;;;;;7329426;19;153831;-15
2022/08/25 04:37:54;;;;;;;6.03;3.88;;;;;;;;;;7331288;19;161808;-15
2022/08/25 04:40:28;;;;;;;4.38;3.78;;;;;;;;;;7334860;19;162597;-14
2022/08/25 04:42:59;;;;;;;5.97;4.38;;;;;;;;;;7331873;19;154146;-15
2022/08/25 04:45:30;;;;;;;5.30;4.00;;;;;;;;;;7331731;19;153549;-14
2022/08/25 04:48:02;;;;;;;5.38;4.25;;;;;;;;;;7330034;19;161918;-14
2022/08/25 04:50:33;;;;;;;7.43;4.43;;;;;;;;;;7328671;19;162632;-14
2022/08/25 04:53:04;;;;;;;4.50;4.10;;;;;;;;;;7331472;19;154044;-14
2022/08/25 04:55:42;;;;;;;4.57;4.10;;;;;;;;;;7331402;19;153618;-15
2022/08/25 04:58:14;;;;;;;5.10;4.32;;;;;;;;;;7331058;19;161914;-14
2022/08/25 05:00:45;;;;;;;5.23;4.27;;;;;;;;;;7330856;19;162683;-14
2022/08/25 05:03:17;;;;;;;6.30;4.15;;;;;;;;;;7330983;19;154026;-14
2022/08/25 05:05:48;;;;;;;4.97;3.95;;;;;;;;;;7330907;19;153804;-15
2022/08/25 05:08:19;;;;;;;7.55;4.40;;;;;;;;;;7331317;19;162066;-15
2022/08/25 05:10:55;;;;;;;6.90;4.70;;;;;;;;;;7332416;19;162376;-15
2022/08/25 05:13:27;;;;;;;6.30;4.47;;;;;;;;;;7330649;19;154019;-14
2022/08/25 05:16:01;;;;;;;7.68;4.15;;;;;;;;;;7330510;19;153553;-14
2022/08/25 05:18:33;;;;;;;5.03;4.30;;;;;;;;;;7330225;19;162059;-14
2022/08/25 05:21:05;;;;;;;;;;;;;;;;;;7330603;19;162582;-15
2022/08/25 05:23:36;;;;;;;4.85;4.13;;;;;;;;;;7330597;19;154255;-14
2022/08/25 05:26:13;;;;;;;5.30;4.28;;;;;;;;;;7330353;19;153575;-16
2022/08/25 05:28:47;;;;;;;4.47;4.05;;;;;;;;;;7330052;19;161798;-14
2022/08/25 05:31:20;;;;;;;5.05;4.40;;;;;;;;;;7326932;19;162608;-15
2022/08/25 05:33:52;;;;;;;5.63;3.80;;;;;;;;;;7330261;19;154151;-14
2022/08/25 05:36:25;;;;;;;4.77;3.87;;;;;;;;;;7330086;19;153561;-15
2022/08/25 05:38:56;;;;;;;5.03;3.80;;;;;;;;;;7328905;19;161938;-15
2022/08/25 05:41:32;;;;;;;4.55;4.15;;;;;;;;;;7329579;19;162575;-14
2022/08/25 05:44:03;;;;;;;5.60;4.28;;;;;;;;;;7333197;19;154012;-14
2022/08/25 05:46:35;;;;;;;5.45;4.47;;;;;;;;;;7328616;19;153614;-14
2022/08/25 05:49:06;;;;;;;5.05;4.03;;;;;;;;;;7329323;19;162071;-15
2022/08/25 05:51:37;;;;;;;4.60;4.10;;;;;;;;;;7329236;19;162480;-15
2022/08/25 05:54:08;;;;;;;4.57;4.10;;;;;;;;;;7327830;19;154013;-14
2022/08/25 05:56:46;;;;;;;5.03;3.90;;;;;;;;;;7328844;19;132554;-14
2022/08/25 05:59:17;;;;;;;4.40;3.72;;;;;;;;;;7328543;19;161817;-14
2022/08/25 06:04:32;;;;;;;6.43;4.35;;;;;;;;;;7329352;19;154002;-16
2022/08/25 06:07:04;;;;;;;4.55;3.58;;;;;;;;;;7328012;19;153922;-16
2022/08/25 06:09:35;;;;;;;6.18;4.30;;;;;;;;;;7330211;19;161926;-16
2022/08/25 06:12:10;;;;;;;5.78;3.85;;;;;;;;;;7328953;19;162387;-17
2022/08/25 06:14:41;;;;;;;5.68;3.90;;;;;;;;;;7328986;19;153975;-16
2022/08/25 06:17:13;;;;;;;3.83;3.40;;;;;;;;;;7327588;19;153678;-16
2022/08/25 06:19:44;;;;;;;4.60;3.60;;;;;;;;;;7328559;19;161948;-16
2022/08/25 06:22:15;;;;;;;4.10;3.70;;;;;;;;;;7328336;19;162520;-16
2022/08/25 06:24:46;;;;;;;4.40;4.00;;;;;;;;;;7328777;19;154255;-16
2022/08/25 06:27:21;;;;;;;4.28;3.80;;;;;;;;;;7328613;19;153697;-16
2022/08/25 06:29:52;;;;;;;5.70;3.78;;;;;;;;;;7327705;19;162343;-16
2022/08/25 06:32:23;;;;;;;4.03;3.65;;;;;;;;;;7326583;19;162502;-16
2022/08/25 06:34:54;;;;;;;4.60;4.20;;;;;;;;;;7328499;19;153959;-15
2022/08/25 06:37:26;;;;;;;4.45;3.55;;;;;;;;;;7328240;19;153679;-16
2022/08/25 06:39:57;;;;;;;4.45;3.75;;;;;;;;;;7330219;19;161986;-16
2022/08/25 06:42:31;;;;;;;4.07;3.67;;;;;;;;;;7327569;19;163123;-16
2022/08/25 06:45:02;;;;;;;5.57;3.55;;;;;;;;;;7327384;19;154127;-16
2022/08/25 06:47:33;;;;;;;5.20;3.40;;;;;;;;;;7327702;19;153626;-16
2022/08/25 06:50:05;;;;;;;5.30;3.60;;;;;;;;;;7327142;19;161792;-16
2022/08/25 06:52:37;;;;;;;4.30;3.90;;;;;;;;;;7327618;19;162532;-16
2022/08/25 06:55:09;;;;;;;6.00;3.72;;;;;;;;;;7325484;19;154211;-16
2022/08/25 06:57:42;;;;;;;3.65;3.33;;;;;;;;;;7330163;19;153651;-16
2022/08/25 07:00:15;;;;;;;5.63;3.28;;;;;;;;;;7333970;19;162079;-16
2022/08/25 07:02:46;;;;;;;5.28;4.03;;;;;;;;;;7334033;19;162351;-14
2022/08/25 07:05:17;;;;;;;4.38;3.50;;;;;;;;;;7334140;19;154034;-14
2022/08/25 07:07:56;;;;;;;5.95;3.33;;;;;;;;;;7334252;19;153555;-17
2022/08/25 07:10:28;;;;;;;4.10;3.28;;;;;;;;;;7336910;19;161685;-14
2022/08/25 07:13:04;;;;;;;4.53;3.03;;;;;;;;;;7333750;19;162333;-15
2022/08/25 07:15:40;;;;;;;4.30;3.30;;;;;;;;;;7334082;19;154199;-15
2022/08/25 07:18:11;;;;;;;3.45;3.05;;;;;;;;;;7334257;19;153648;-15
2022/08/25 07:20:44;;;;;;;4.15;3.28;;;;;;;;;;7333771;19;161806;-15
2022/08/25 07:23:15;;;;;;;4.75;3.22;;;;;;;;;;7333573;19;162362;-15
2022/08/25 07:25:47;;;;;;;5.35;3.08;;;;;;;;;;7333745;19;154036;-15
2022/08/25 07:28:21;;;;;;;4.97;3.42;;;;;;;;;;7333609;19;153665;-14
2022/08/25 07:30:53;;;;;;;4.65;3.55;;;;;;;;;;7332353;19;161838;-15
2022/08/25 07:33:24;;;;;;;3.67;2.72;;;;;;;;;;7333933;19;162610;-15
2022/08/25 07:35:56;;;;;;;3.45;3.13;;;;;;;;;;7333460;19;154057;-16
2022/08/25 07:38:27;;;;;;;3.80;3.00;;;;;;;;;;7333472;19;153553;-15
2022/08/25 07:41:03;;;;;;;4.82;3.03;;;;;;;;;;7337557;19;161828;-15
2022/08/25 07:43:37;;;;;;;4.45;3.20;;;;;;;;;;7332883;19;162399;-15
2022/08/25 07:46:09;;;;;;;5.38;3.13;;;;;;;;;;7333343;19;154235;-22
2022/08/25 07:48:40;;;;;;;5.15;3.25;;;;;;;;;;7333197;19;153640;-17
2022/08/25 07:51:14;;;;;;;4.63;2.95;;;;;;;;;;7332078;19;161877;-15
2022/08/25 07:53:45;;;;;;;6.78;3.15;;;;;;;;;;7331681;19;162474;-15
2022/08/25 07:56:18;;;;;;;6.25;3.10;;;;;;;;;;7332920;19;153950;-15
2022/08/25 07:58:52;;;;;;;6.28;3.17;;;;;;;;;;7332848;19;153514;-15
2022/08/25 08:01:26;;;;;;;5.53;2.92;;;;;;;;;;7331142;19;161899;-15
2022/08/25 08:03:57;;;;;;;5.18;2.60;;;;;;;;;;7332104;19;162163;-15
2022/08/25 08:06:29;;;;;;;;;;;;;;;;;;7333006;19;153974;-15
2022/08/25 08:09:01;;;;;;;4.35;2.45;;;;;;;;;;7331691;19;153395;-15
2022/08/25 08:11:39;;;;;;;4.73;2.90;;;;;;;;;;7331636;19;161780;-15
2022/08/25 08:14:16;;;;;;;5.20;3.20;;;;;;;;;;7332113;19;162937;-16
2022/08/25 08:16:48;;;;;;;4.90;2.72;;;;;;;;;;7332328;19;154020;-16
2022/08/25 08:19:21;;;;;;;4.35;2.67;;;;;;;;;;7331125;19;153586;-15
2022/08/25 08:21:57;;;;;;;5.20;2.65;;;;;;;;;;7331938;19;161917;-16
2022/08/25 08:24:38;;;;;;;4.82;2.42;;;;;;;;;;7331858;19;162362;-16
2022/08/25 08:27:13;;;;;;;7.00;3.05;;;;;;;;;;7332259;19;154031;-15
2022/08/25 08:29:48;;;;;;;4.22;2.67;;;;;;;;;;7332079;19;153520;-16
2022/08/25 08:32:24;;;;;;;5.00;2.60;;;;;;;;;;7330229;19;161811;-15
2022/08/25 08:35:00;;;;;;;6.75;3.08;;;;;;;;;;7330141;19;162565;-15
2022/08/25 08:37:31;;;;;;;5.03;2.60;;;;;;;;;;7331595;19;154282;-16
2022/08/25 08:40:02;;;;;;;5.97;2.58;;;;;;;;;;7334433;19;153585;-16
2022/08/25 08:42:47;;;;;;;7.88;3.47;;;;;;;;;;7331116;19;162035;-15
2022/08/25 08:45:30;;;;;;;4.72;2.28;;;;;;;;;;7331241;19;162579;-15
2022/08/25 08:48:17;;;;;;;3.72;2.75;;;;;;;;;;7331505;19;154501;-16
2022/08/25 08:50:58;;;;;;;5.13;2.25;;;;;;;;;;7331261;19;153801;-15
2022/08/25 08:53:39;;;;;;;5.43;2.10;;;;;;;;;;7328316;19;161935;-15
2022/08/25 08:56:13;;;;;;;4.97;2.28;;;;;;;;;;7330990;19;162242;-15
2022/08/25 08:58:47;;;;;;;2.85;2.55;;;;;;;;;;7331370;19;153971;-15
2022/08/25 09:01:28;;;;;;;3.03;2.38;;;;;;;;;;7331116;19;153512;-15
2022/08/25 09:04:06;;;;;;;4.47;2.22;;;;;;;;;;7330576;19;162143;-14
2022/08/25 09:06:42;;;;;;;3.75;2.20;;;;;;;;;;7333559;19;162348;-15
2022/08/25 09:09:26;;;;;;;5.32;3.00;;;;;;;;;;7332015;19;154015;-15
2022/08/25 09:12:06;;;;;;;2.47;1.92;;;;;;;;;;7329061;19;153517;-15
2022/08/25 09:14:58;;;;;;;4.18;2.03;;;;;;;;;;7330443;19;162017;-16
2022/08/25 09:17:44;;;;;;;3.70;2.10;;;;;;;;;;7329215;19;162456;-16
2022/08/25 09:20:35;;;;;;;4.45;2.20;;;;;;;;;;7328911;19;153963;-16
2022/08/25 09:23:21;;;;;;;5.57;2.40;;;;;;;;;;7330547;19;153538;-15
2022/08/25 09:26:01;;;;;;;5.15;2.53;;;;;;;;;;7329718;19;162334;-16
2022/08/25 09:28:38;;;;;;;3.50;2.28;;;;;;;;;;7334266;19;162534;-15
2022/08/25 09:31:17;;;;;;;4.28;2.58;;;;;;;;;;7330484;19;153973;-15
2022/08/25 09:33:52;;;;;;;4.20;2.30;;;;;;;;;;7326709;19;153295;-16
2022/08/25 09:36:23;;;;;;;4.88;2.25;;;;;;;;;;7328572;19;161679;-16
2022/08/25 09:38:54;;;;;;;4.50;2.10;;;;;;;;;;7330020;19;162531;-16
2022/08/25 09:41:44;;;;;;;2.30;1.83;;;;;;;;;;7329845;19;154019;-16
2022/08/25 09:44:22;;;;;;;4.85;2.58;;;;;;;;;;7329702;19;153333;-16
2022/08/25 09:47:00;;;;;;;3.33;2.20;;;;;;;;;;7328360;19;161916;-16
2022/08/25 09:49:41;;;;;;;5.22;2.28;;;;;;;;;;7329466;19;162652;-16
2022/08/25 09:52:25;;;;;;;6.72;1.98;;;;;;;;;;7329455;19;153971;-16
2022/08/25 09:54:57;;;;;;;4.30;2.00;;;;;;;;;;7327386;19;153618;-16
2022/08/25 09:57:34;;;;;;;4.85;2.35;;;;;;;;;;7329208;19;161825;-16
2022/08/25 10:00:14;;;;;;;4.68;2.10;;;;;;;;;;7329090;19;162320;-16
2022/08/25 10:03:01;;;;;;;4.40;2.10;;;;;;;;;;7329235;19;153950;-17
2022/08/25 10:05:40;;;;;;;3.28;1.90;;;;;;;;;;7329038;19;153521;-16
2022/08/25 10:08:15;;;;;;;5.95;2.03;;;;;;;;;;7328636;19;162156;-16
2022/08/25 10:10:54;;;;;;;4.60;2.53;;;;;;;;;;7332792;19;162738;-16
2022/08/25 10:13:36;;;;;;;4.07;1.90;;;;;;;;;;7326184;19;154071;-16
2022/08/25 10:16:24;;;;;;;4.13;2.00;;;;;;;;;;7328872;19;153565;-16
2022/08/25 10:19:05;;;;;;;4.53;2.10;;;;;;;;;;7327181;19;162130;-16
2022/08/25 10:21:41;;;;;;;2.72;1.88;;;;;;;;;;7328341;19;162541;-16
2022/08/25 10:24:13;;;;;;;4.25;1.80;;;;;;;;;;7328793;19;154144;-16
2022/08/25 10:26:53;;;;;;;;;;;;;;;;;;7329220;19;153516;-16
2022/08/25 10:29:40;;;;;;;3.35;1.80;;;;;;;;;;7327151;19;161671;-16
2022/08/25 10:32:20;;;;;;;6.00;1.77;;;;;;;;;;7332080;19;162488;-16
2022/08/25 10:34:55;;;;;;;3.80;1.80;;;;;;;;;;7333005;19;154194;-16
2022/08/25 10:37:38;;;;;;;5.15;2.13;;;;;;;;;;7335067;19;153528;-16
2022/08/25 10:40:17;;;;;;;3.85;2.17;;;;;;;;;;7337718;19;161730;-16
2022/08/25 10:43:05;;;;;;;2.10;1.88;;;;;;;;;;7334631;19;162392;-16
2022/08/25 10:45:47;;;;;;;6.55;1.98;;;;;;;;;;7334960;19;153968;-16
2022/08/25 10:48:44;;;;;;;4.93;1.98;;;;;;;;;;7334779;19;153516;-16
2022/08/25 10:51:33;;;;;;;4.95;2.15;;;;;;;;;;7333145;19;161910;-16
2022/08/25 10:54:13;;;;;;;2.90;1.60;;;;;;;;;;7332293;19;162577;-16
2022/08/25 10:56:51;;;;;;;2.42;1.50;;;;;;;;;;7333281;19;154052;-16
2022/08/25 10:59:32;;;;;;;5.68;1.80;;;;;;;;;;7334413;19;154283;-16
2022/08/25 11:02:35;;;;;;;2.03;1.77;;;;;;;;;;7332948;19;161884;-16
2022/08/25 11:05:11;;;;;;;8.02;1.60;;;;;;;;;;7332863;19;162874;-16
2022/08/25 11:07:46;;;;;;;6.60;2.05;;;;;;;;;;7334115;19;153977;-16
2022/08/25 11:10:35;;;;;;;6.20;2.08;;;;;;;;;;7337409;19;153644;-16
2022/08/25 11:13:12;;;;;;;5.25;1.60;;;;;;;;;;7336396;19;162163;-16
2022/08/25 11:15:52;;;;;;;5.15;1.92;;;;;;;;;;7333451;19;162384;-16
2022/08/25 11:18:54;;;;;;;3.85;1.80;;;;;;;;;;7333804;19;153972;-16
2022/08/25 11:21:31;;;;;;;6.75;1.80;;;;;;;;;;7333995;19;153482;-16
2022/08/25 11:24:09;;;;;;;4.50;1.50;;;;;;;;;;7332468;19;161922;-16
2022/08/25 11:26:49;;;;;;;3.47;1.55;;;;;;;;;;7336154;19;162516;-16
2022/08/25 11:29:23;;;;;;;5.22;1.88;;;;;;;;;;7333385;19;154083;-16
2022/08/25 11:31:55;;;;;;;2.78;1.80;;;;;;;;;;7333389;19;153532;-16
2022/08/25 11:34:29;;;;;;;7.40;1.70;;;;;;;;;;7331629;19;161988;-16
2022/08/25 11:37:06;;;;;;;3.63;1.52;;;;;;;;;;7333036;19;162722;-15
2022/08/25 11:39:59;;;;;;;4.07;1.73;;;;;;;;;;7335560;19;153982;-15
2022/08/25 11:42:44;;;;;;;1.90;1.67;;;;;;;;;;7333004;19;153625;-15
2022/08/25 11:45:28;;;;;;;3.80;1.70;;;;;;;;;;7332913;19;161843;-16
2022/08/25 11:48:14;;;;;;;2.70;1.55;;;;;;;;;;7332939;19;162533;-15
2022/08/25 11:51:02;;;;;;;3.70;1.40;;;;;;;;;;7332863;19;154130;-15
2022/08/25 11:53:36;;;;;;;5.25;2.10;;;;;;;;;;7331506;19;153783;-15
2022/08/25 11:56:11;;;;;;;2.22;1.50;;;;;;;;;;7333225;19;161851;-16
2022/08/25 11:58:51;;;;;;;3.35;1.60;;;;;;;;;;7333115;19;162352;-15
2022/08/25 12:01:52;;;;;;;4.00;1.40;;;;;;;;;;7333380;19;153528;-15
2022/08/25 12:04:40;;;;;;;3.70;1.73;;;;;;;;;;7333422;19;153773;-16
2022/08/25 12:07:23;;;;;;;3.72;1.75;;;;;;;;;;7332810;19;161978;-16
2022/08/25 12:10:09;;;;;;;;;;;;;;;;;;7335607;19;162647;-15
2022/08/25 12:13:04;;;;;;;4.63;1.63;;;;;;;;;;7333066;19;154185;-14
2022/08/25 12:16:01;;;;;;;5.97;1.80;;;;;;;;;;7330604;19;153677;-15
2022/08/25 12:18:46;;;;;;;3.00;1.60;;;;;;;;;;7331360;19;161887;-15
2022/08/25 12:21:30;;;;;;;6.05;1.75;;;;;;;;;;7332389;19;162349;-16
2022/08/25 12:24:13;;;;;;;6.63;1.70;;;;;;;;;;7332686;19;154247;-16
2022/08/25 12:26:53;;;;;;;4.60;1.88;;;;;;;;;;7332528;19;153687;-15
2022/08/25 12:29:32;;;;;;;3.72;1.40;;;;;;;;;;7332207;19;161784;-15
2022/08/25 12:32:21;;;;;;;3.28;1.75;;;;;;;;;;7332121;19;162568;-15
2022/08/25 12:35:24;;;;;;;5.13;1.60;;;;;;;;;;7331127;19;153940;-16
2022/08/25 12:37:59;;;;;;;4.05;1.60;;;;;;;;;;7332301;19;153719;-16
2022/08/25 12:40:54;;;;;;;3.63;1.67;;;;;;;;;;7335964;19;161992;-15
2022/08/25 12:43:29;;;;;;;2.10;1.30;;;;;;;;;;7331642;19;162285;-15
2022/08/25 12:46:30;;;;;;;3.53;1.35;;;;;;;;;;7332173;19;154201;-16
2022/08/25 12:49:06;;;;;;;4.22;1.58;;;;;;;;;;7331754;19;153540;-16
2022/08/25 12:51:55;;;;;;;6.60;1.80;;;;;;;;;;7331587;19;162002;-15
2022/08/25 12:54:44;;;;;;;3.42;1.30;;;;;;;;;;7328274;19;162535;-16
2022/08/25 12:57:35;;;;;;;2.97;1.33;;;;;;;;;;7331653;19;153965;-16
2022/08/25 13:00:16;;;;;;;3.00;1.33;;;;;;;;;;7331587;19;153524;-16
2022/08/25 13:03:18;;;;;;;3.50;1.58;;;;;;;;;;7331449;19;161956;-16
2022/08/25 13:06:16;;;;;;;1.42;1.10;;;;;;;;;;7331126;19;162449;-16
2022/08/25 13:09:00;;;;;;;3.53;1.30;;;;;;;;;;7331852;19;154153;-16
2022/08/25 13:11:37;;;;;;;3.25;1.35;;;;;;;;;;7331349;19;153810;-16
2022/08/25 13:14:19;;;;;;;4.05;1.50;;;;;;;;;;7330841;19;161856;-16
2022/08/25 13:16:58;;;;;;;4.75;1.30;;;;;;;;;;7329458;19;162651;-21
2022/08/25 13:19:30;;;;;;;1.90;1.17;;;;;;;;;;7331102;19;154333;-16
2022/08/25 13:22:05;;;;;;;;;;;;;;;;;;7331494;19;153369;-16
2022/08/25 13:24:41;;;;;;;3.83;1.30;;;;;;;;;;7330584;19;161918;-16
2022/08/25 13:27:26;;;;;;;4.38;1.30;;;;;;;;;;7334848;19;162405;-15
2022/08/25 13:29:59;;;;;;;3.35;1.30;;;;;;;;;;7330575;19;154196;-16
2022/08/25 13:32:32;;;;;;;3.03;1.25;;;;;;;;;;7330388;19;153592;-16
2022/08/25 13:35:16;;;;;;;4.25;1.90;;;;;;;;;;7328985;19;161816;-16
2022/08/25 13:37:50;;;;;;;2.58;1.00;;;;;;;;;;7330003;19;162433;-16
2022/08/25 13:40:26;;;;;;;3.28;1.30;;;;;;;;;;7333520;19;153959;-16
2022/08/25 13:43:01;;;;;;;3.50;1.50;;;;;;;;;;7330394;19;153511;-16
2022/08/25 13:45:39;;;;;;;3.95;1.20;;;;;;;;;;7330201;19;161919;-16
2022/08/25 13:48:11;;;;;;;3.47;1.40;;;;;;;;;;7329936;19;162322;-16
2022/08/25 13:50:44;;;;;;;3.28;1.40;;;;;;;;;;7330293;19;154341;-16
2022/08/25 13:53:25;;;;;;;3.13;1.10;;;;;;;;;;7330115;19;153610;-16
2022/08/25 13:56:00;;;;;;;3.63;1.17;;;;;;;;;;7328554;19;161873;-16
2022/08/25 13:58:34;;;;;;;4.60;1.20;;;;;;;;;;7329743;19;163143;-16
2022/08/25 14:01:11;;;;;;;1.45;1.15;;;;;;;;;;7329675;19;154026;-16
2022/08/25 14:03:45;;;;;;;6.05;1.17;;;;;;;;;;7329232;19;153647;-16
2022/08/25 14:06:23;;;;;;;1.88;1.00;;;;;;;;;;7327981;19;162119;-16
2022/08/25 14:09:16;;;;;;;1.08;0.95;;;;;;;;;;7329171;19;162404;-16
2022/08/25 14:11:51;;;;;;;;;;;;;;;;;;7329821;19;154006;-16
2022/08/25 14:14:45;;;;;;;2.47;1.23;;;;;;;;;;7329176;19;153611;-16
2022/08/25 14:17:23;;;;;;;1.55;1.13;;;;;;;;;;7325819;19;162071;-16
2022/08/25 14:20:07;;;;;;;1.35;1.17;;;;;;;;;;7328446;19;162544;-16
2022/08/25 14:22:39;;;;;;;2.72;1.20;;;;;;;;;;7328948;19;153956;-16
2022/08/25 14:25:14;;;;;;;1.98;1.25;;;;;;;;;;7328822;19;154211;-16
2022/08/25 14:27:47;;;;;;;2.70;1.50;;;;;;;;;;7328337;19;162035;-16
2022/08/25 14:30:44;;;;;;;2.78;1.13;;;;;;;;;;7328000;19;162456;-16
2022/08/25 14:33:28;;;;;;;2.95;1.35;;;;;;;;;;7328717;19;154026;-16
2022/08/25 14:36:04;;;;;;;3.90;1.38;;;;;;;;;;7325976;19;153565;-15
2022/08/25 14:38:37;;;;;;;2.92;1.00;;;;;;;;;;7328119;19;161910;-15
2022/08/25 14:41:11;;;;;;;2.95;1.13;;;;;;;;;;7326702;19;162401;-16
2022/08/25 14:43:45;;;;;;;3.58;1.23;;;;;;;;;;7328173;19;154006;-16
2022/08/25 14:46:21;;;;;;;2.15;1.00;;;;;;;;;;7327990;19;153535;-16
2022/08/25 14:48:58;;;;;;;3.15;1.10;;;;;;;;;;7327576;19;161857;-16
2022/08/25 14:51:32;;;;;;;3.55;1.30;;;;;;;;;;7327256;19;162371;-16
2022/08/25 14:54:06;;;;;;;2.50;0.93;;;;;;;;;;7326810;19;154083;-16
2022/08/25 14:56:39;;;;;;;7.10;1.38;;;;;;;;;;7326269;19;153797;-16
2022/08/25 14:59:10;;;;;;;1.60;0.98;;;;;;;;;;7327076;19;162009;-16
2022/08/25 15:01:42;;;;;;;2.50;0.77;;;;;;;;;;7331545;19;162705;-16
2022/08/25 15:04:15;;;;;;;6.55;1.13;;;;;;;;;;7327615;19;153995;-16
2022/08/25 15:06:52;;;;;;;1.70;1.05;;;;;;;;;;7327415;19;153642;-16
2022/08/25 15:09:20;;;;;;;4.38;1.02;;;;;;;;;;7328346;19;161900;-16
2022/08/25 15:11:58;;;;;;;2.35;0.88;;;;;;;;;;7326895;19;162420;-16
2022/08/25 15:14:30;;;;;;;4.53;1.25;;;;;;;;;;7327204;19;153974;-16
2022/08/25 15:17:01;;;;;;;2.35;1.13;;;;;;;;;;7325571;19;154310;-16
2022/08/25 15:19:35;;;;;;;2.88;1.15;;;;;;;;;;7331486;19;162186;-17
2022/08/25 15:22:06;;;;;;;3.38;1.02;;;;;;;;;;7333563;19;162526;-16
2022/08/25 15:24:37;;;;;;;2.53;1.00;;;;;;;;;;7333838;19;154039;-15
2022/08/25 15:27:11;;;;;;;3.28;1.17;;;;;;;;;;7333866;19;153537;-15